Terminal Aerodrome Forecast
Issued by NWS

Home | Current Version | Previous Version | Text Only | Print | Product List | Glossary On
Versions: 1 2 3 4 5 6 7 8 9 10 11 12 13 14 15 16 17 18 19 20 21
000
FTUS43 KAPX 292005 AAA
TAFAPN
TAF AMD
KAPN 292005Z 2920/3018 14004KT P6SM VCSH SCT022 OVC050
      TEMPO 2920/2922 BKN022 OVC040
     FM292200 14003KT P6SM SCT025 BKN050
     FM300300 00000KT 4SM BR OVC018
     FM301300 19004KT P6SM SCT030=

USA.gov is the U.S. government's official web portal to all federal, state and local government web resources and services.